Comandante Giribone, Argentina
Current Conditions -  °F | °C
As of 12:00 PM on Friday 24 Oct 2014 (Local Time) from SAEZ Reporting Station
Clear Clear  
Wind Chill: 82°   Ceiling: Unl
Heat Index: 83°   Visibility: 5mi
Dew Point: 63°   Wind: 5mph
Humidity: 51%   Direction: 60°ENE
Pressure: 30"   Gusts: NA
Location:  35.62°S, 57.73°W
Report Text: SAEZ 241500Z 06004KT 350V100 8000 NSC 28/17 Q1016
Loading
Personal Weather Stations






























Interactive Weather Map
Tropical Storm Tracking
New forecast layout! Learn more

10-Day Weather Forecast

Advertisements
Track Severe Weather on mobile